createdAt,value
2023-06-11T00:02:26.143Z,54.87
2023-06-11T00:04:55.715Z,54.37
2023-06-11T00:07:27.008Z,54.50
2023-06-11T00:09:55.640Z,54.79
2023-06-11T00:12:24.351Z,55.05
2023-06-11T00:14:52.826Z,55.36
2023-06-11T00:17:21.297Z,55.47
2023-06-11T00:19:49.833Z,55.73
2023-06-11T00:22:19.112Z,55.80
2023-06-11T00:24:49.020Z,55.71
2023-06-11T00:27:17.337Z,55.61
2023-06-11T00:29:45.967Z,56.08
2023-06-11T00:32:14.524Z,55.98
2023-06-11T00:34:43.357Z,56.26
2023-06-11T00:37:14.880Z,56.23
2023-06-11T00:39:43.440Z,56.71
2023-06-11T00:42:14.056Z,56.55
2023-06-11T00:44:43.188Z,56.80
2023-06-11T00:47:11.849Z,57.17
2023-06-11T00:49:40.770Z,57.50
2023-06-11T00:52:17.536Z,57.47
2023-06-11T00:54:46.124Z,57.72
2023-06-11T00:57:18.938Z,57.86
2023-06-11T00:59:49.331Z,57.61
2023-06-11T01:02:23.737Z,57.93
2023-06-11T01:04:58.636Z,58.11
2023-06-11T01:07:31.679Z,58.29
2023-06-11T01:10:04.391Z,57.69
2023-06-11T01:12:39.255Z,58.13
2023-06-11T01:15:15.771Z,58.22
2023-06-11T01:17:51.171Z,58.06
2023-06-11T01:20:26.591Z,57.89
2023-06-11T01:23:17.388Z,57.65
2023-06-11T01:25:52.730Z,57.12
2023-06-11T01:28:28.257Z,53.21
2023-06-11T01:31:01.420Z,50.95
2023-06-11T01:33:30.330Z,50.35
2023-06-11T01:36:01.747Z,49.08
2023-06-11T01:38:36.218Z,48.38
2023-06-11T01:41:05.896Z,48.54
2023-06-11T01:43:36.000Z,52.95
2023-06-11T01:46:05.621Z,54.15
2023-06-11T01:48:34.146Z,55.51
2023-06-11T01:51:02.706Z,55.42
2023-06-11T01:53:36.697Z,55.70
2023-06-11T01:56:07.899Z,52.98
2023-06-11T01:58:38.482Z,48.73
2023-06-11T02:01:09.418Z,47.39
2023-06-11T02:03:39.027Z,43.69
2023-06-11T02:06:08.451Z,45.83
2023-06-11T02:08:37.348Z,43.90
2023-06-11T02:11:05.859Z,45.04
2023-06-11T02:13:34.655Z,42.92
2023-06-11T02:16:04.639Z,43.17
2023-06-11T02:18:33.461Z,41.47
2023-06-11T02:21:04.611Z,42.03
2023-06-11T02:23:33.183Z,41.00
2023-06-11T02:26:01.684Z,39.95
2023-06-11T02:28:30.939Z,38.68
2023-06-11T02:30:59.402Z,41.37
2023-06-11T02:33:29.326Z,36.95
2023-06-11T02:35:58.673Z,34.81
2023-06-11T02:38:27.506Z,37.87
2023-06-11T02:40:56.327Z,38.98
2023-06-11T02:43:26.776Z,41.23
2023-06-11T02:45:55.447Z,37.55
2023-06-11T02:48:24.035Z,38.96
2023-06-11T02:50:54.296Z,40.08
2023-06-11T02:53:23.034Z,39.91
2023-06-11T02:55:51.492Z,37.48
2023-06-11T02:58:20.117Z,35.55
2023-06-11T03:00:48.750Z,37.17
2023-06-11T03:03:17.407Z,37.02
2023-06-11T03:05:50.695Z,38.61
2023-06-11T03:08:23.339Z,39.68
2023-06-11T03:10:52.355Z,38.91
2023-06-11T03:13:21.331Z,39.69
2023-06-11T03:15:53.297Z,44.78
2023-06-11T03:18:21.968Z,47.84
2023-06-11T03:20:50.505Z,48.21
2023-06-11T03:23:20.526Z,50.19
2023-06-11T03:25:52.385Z,49.90
2023-06-11T03:28:21.307Z,51.07
2023-06-11T03:30:49.735Z,50.06
2023-06-11T03:33:18.226Z,50.47
2023-06-11T03:35:46.963Z,48.17
2023-06-11T03:38:29.234Z,45.60
2023-06-11T03:40:57.970Z,43.32
2023-06-11T03:43:31.161Z,43.24
2023-06-11T03:45:59.922Z,43.87
2023-06-11T03:48:28.719Z,43.27
2023-06-11T03:50:57.879Z,43.30
2023-06-11T03:53:26.601Z,43.93
2023-06-11T03:55:57.410Z,43.38
2023-06-11T03:58:28.916Z,43.78
2023-06-11T04:00:57.694Z,42.47
2023-06-11T04:03:26.310Z,43.54
2023-06-11T04:05:56.785Z,43.51
2023-06-11T04:08:25.487Z,44.28
2023-06-11T04:10:54.362Z,43.39
2023-06-11T04:13:24.517Z,45.19
2023-06-11T04:15:53.513Z,44.54
2023-06-11T04:18:22.030Z,44.98
2023-06-11T04:20:55.857Z,44.63
2023-06-11T04:23:24.580Z,44.45
2023-06-11T04:25:53.183Z,44.31
2023-06-11T04:28:27.481Z,43.78
2023-06-11T04:30:59.564Z,45.91
2023-06-11T04:33:34.672Z,45.41
2023-06-11T04:36:08.719Z,45.21
2023-06-11T04:38:38.790Z,44.47
2023-06-11T04:41:08.152Z,45.08
2023-06-11T04:43:38.550Z,45.02
2023-06-11T04:46:07.912Z,44.72
2023-06-11T04:48:39.278Z,45.64
2023-06-11T04:51:07.948Z,45.28
2023-06-11T04:53:40.291Z,45.00
2023-06-11T04:56:13.070Z,44.60
2023-06-11T04:58:46.354Z,43.75
2023-06-11T05:01:16.654Z,44.84
2023-06-11T05:03:47.427Z,45.27
2023-06-11T05:06:22.803Z,44.75
2023-06-11T05:08:53.376Z,45.16
2023-06-11T05:11:22.765Z,43.98
2023-06-11T05:13:53.926Z,43.99
2023-06-11T05:16:23.440Z,44.32
2023-06-11T05:18:53.125Z,43.83
2023-06-11T05:21:22.188Z,43.68
2023-06-11T05:23:51.669Z,43.38
2023-06-11T05:26:20.598Z,43.91
2023-06-11T05:28:50.283Z,43.90
2023-06-11T05:31:22.697Z,43.82
2023-06-11T05:33:52.870Z,42.64
2023-06-11T05:36:21.806Z,41.25
2023-06-11T05:38:52.807Z,42.28
2023-06-11T05:41:27.047Z,42.13
2023-06-11T05:43:57.834Z,41.03
2023-06-11T05:46:30.153Z,41.43
2023-06-11T05:49:00.238Z,41.31
2023-06-11T05:51:29.168Z,40.15
2023-06-11T05:54:02.740Z,39.40
2023-06-11T05:56:31.539Z,39.58
2023-06-11T05:59:00.524Z,38.99
2023-06-11T06:01:34.470Z,37.49
2023-06-11T06:04:04.767Z,38.62
2023-06-11T06:06:34.156Z,37.91
2023-06-11T06:09:03.961Z,38.58
2023-06-11T06:11:33.443Z,38.91
2023-06-11T06:14:03.010Z,37.72
2023-06-11T06:16:33.376Z,36.67
2023-06-11T06:19:04.762Z,36.49
2023-06-11T06:21:35.327Z,36.11
2023-06-11T06:24:04.448Z,36.42
2023-06-11T06:26:32.964Z,36.07
2023-06-11T06:29:07.914Z,36.29
2023-06-11T06:31:39.177Z,36.72
2023-06-11T06:34:09.409Z,36.95
2023-06-11T06:36:40.313Z,37.65
2023-06-11T06:39:10.627Z,37.40
2023-06-11T06:41:40.321Z,37.47
2023-06-11T06:44:13.753Z,37.74
2023-06-11T06:46:43.745Z,37.55
2023-06-11T06:49:13.312Z,37.75
2023-06-11T06:51:46.497Z,37.09
2023-06-11T06:54:15.999Z,37.72
2023-06-11T06:56:44.997Z,37.01
2023-06-11T06:59:14.146Z,38.09
2023-06-11T07:01:44.673Z,38.31
2023-06-11T07:04:14.860Z,38.01
2023-06-11T07:06:44.438Z,37.83
2023-06-11T07:09:13.087Z,37.24
2023-06-11T07:11:44.587Z,37.11
2023-06-11T07:14:13.075Z,36.47
2023-06-11T07:16:41.661Z,35.55
2023-06-11T07:19:11.878Z,34.86
2023-06-11T07:21:43.235Z,35.07
2023-06-11T07:24:12.524Z,34.92
2023-06-11T07:26:41.951Z,36.00
2023-06-11T07:29:13.550Z,35.96
2023-06-11T07:31:44.457Z,35.64
2023-06-11T07:34:17.690Z,35.91
2023-06-11T07:36:46.305Z,35.60
2023-06-11T07:39:20.378Z,35.42
2023-06-11T07:41:49.027Z,35.15
2023-06-11T07:44:17.411Z,34.60
2023-06-11T07:46:47.447Z,35.70
2023-06-11T07:49:17.373Z,34.93
2023-06-11T07:51:47.335Z,35.26
2023-06-11T07:54:17.191Z,34.99
2023-06-11T07:56:51.257Z,34.53
2023-06-11T07:59:19.838Z,34.84
2023-06-11T08:01:48.401Z,34.36
2023-06-11T08:04:18.619Z,34.84
2023-06-11T08:06:49.481Z,36.18
2023-06-11T08:09:18.288Z,36.50
2023-06-11T08:11:46.693Z,34.82
2023-06-11T08:14:20.506Z,34.19
2023-06-11T08:16:49.118Z,34.52
2023-06-11T08:19:19.080Z,34.66
2023-06-11T08:21:50.914Z,34.56
2023-06-11T08:24:19.923Z,34.48
2023-06-11T08:26:48.721Z,33.95
2023-06-11T08:29:17.995Z,33.84
2023-06-11T08:31:52.115Z,34.02
2023-06-11T08:34:22.290Z,34.66
2023-06-11T08:36:53.280Z,34.88
2023-06-11T08:39:21.904Z,34.24
2023-06-11T08:41:50.421Z,34.28
2023-06-11T08:44:19.278Z,35.53
2023-06-11T08:46:51.556Z,36.35
2023-06-11T08:49:24.280Z,36.53
2023-06-11T08:51:52.962Z,36.17
2023-06-11T08:54:21.674Z,36.51
2023-06-11T08:56:50.818Z,36.98
2023-06-11T08:59:20.316Z,37.24
2023-06-11T09:01:52.213Z,36.81
2023-06-11T09:04:23.188Z,36.83
2023-06-11T09:07:01.306Z,37.05
2023-06-11T09:09:30.142Z,36.75
2023-06-11T09:12:00.473Z,36.51
2023-06-11T09:14:29.047Z,36.10
2023-06-11T09:16:58.216Z,36.59
2023-06-11T09:19:28.328Z,36.00
2023-06-11T09:21:58.033Z,36.33
2023-06-11T09:24:27.274Z,36.16
2023-06-11T09:26:57.169Z,36.36
2023-06-11T09:29:30.888Z,36.93
2023-06-11T09:32:16.248Z,36.58
2023-06-11T09:34:54.797Z,36.57
2023-06-11T09:37:26.281Z,36.54
2023-06-11T09:39:57.536Z,35.90
2023-06-11T09:42:27.901Z,36.25
2023-06-11T09:45:01.820Z,35.98
2023-06-11T09:47:34.188Z,35.38
2023-06-11T09:50:08.893Z,35.86
2023-06-11T09:52:41.291Z,36.02
2023-06-11T09:55:11.124Z,36.31
2023-06-11T09:57:42.115Z,35.81
2023-06-11T10:00:13.849Z,36.54
2023-06-11T10:02:44.280Z,36.13
2023-06-11T10:05:14.644Z,36.02
2023-06-11T10:07:50.385Z,36.28
2023-06-11T10:10:22.034Z,36.14
2023-06-11T10:12:52.068Z,35.89
2023-06-11T10:15:22.981Z,35.57
2023-06-11T10:17:55.146Z,36.70
2023-06-11T10:20:29.038Z,36.18
2023-06-11T10:23:08.824Z,35.54
2023-06-11T10:25:42.086Z,35.18
2023-06-11T10:28:11.623Z,35.39
2023-06-11T10:30:42.900Z,36.09
2023-06-11T10:33:11.474Z,36.12
2023-06-11T10:35:48.180Z,35.40
2023-06-11T10:38:20.566Z,35.39
2023-06-11T10:40:50.129Z,34.43
2023-06-11T10:43:19.953Z,34.74
2023-06-11T10:46:08.331Z,34.13
2023-06-11T10:48:37.387Z,34.07
2023-06-11T10:51:15.713Z,33.86
2023-06-11T10:53:45.211Z,33.72
2023-06-11T10:56:15.276Z,34.59
2023-06-11T10:58:44.453Z,34.56
2023-06-11T11:01:13.073Z,35.04
2023-06-11T11:03:42.288Z,34.48
2023-06-11T11:06:12.346Z,34.86
2023-06-11T11:08:41.088Z,33.72
2023-06-11T11:11:09.732Z,33.60
2023-06-11T11:13:45.962Z,34.05
2023-06-11T11:16:14.680Z,34.27
2023-06-11T11:18:43.871Z,34.16
2023-06-11T11:21:16.629Z,34.12
2023-06-11T11:23:50.126Z,34.10
2023-06-11T11:26:19.928Z,34.82
2023-06-11T11:28:51.323Z,34.74
2023-06-11T11:31:22.375Z,35.14
2023-06-11T11:33:51.628Z,35.46
2023-06-11T11:36:21.523Z,35.31
2023-06-11T11:38:51.851Z,35.18
2023-06-11T11:41:23.318Z,34.37
2023-06-11T11:43:52.090Z,34.77
2023-06-11T11:46:22.123Z,34.52
2023-06-11T11:48:50.660Z,34.33
2023-06-11T11:51:23.340Z,33.89
2023-06-11T11:53:54.289Z,33.65
2023-06-11T11:56:22.947Z,33.45
2023-06-11T11:58:55.084Z,32.72
2023-06-11T12:01:31.344Z,33.08
2023-06-11T12:04:01.771Z,33.15
2023-06-11T12:06:31.644Z,32.97
2023-06-11T12:09:01.867Z,33.26
2023-06-11T12:11:30.453Z,32.80
2023-06-11T12:14:00.163Z,32.70
2023-06-11T12:16:30.891Z,31.98
2023-06-11T12:19:14.847Z,32.18
2023-06-11T12:21:52.494Z,32.97
2023-06-11T12:24:22.561Z,32.57
2023-06-11T12:26:52.622Z,32.95
2023-06-11T12:29:23.207Z,32.35
2023-06-11T12:31:52.597Z,32.81
2023-06-11T12:34:21.355Z,33.71
2023-06-11T12:36:52.348Z,33.69
2023-06-11T12:39:23.233Z,32.36
2023-06-11T12:41:54.800Z,32.43
2023-06-11T12:44:23.313Z,32.59
2023-06-11T12:46:51.904Z,32.48
2023-06-11T12:49:20.388Z,32.50
2023-06-11T12:51:50.859Z,32.31
2023-06-11T12:54:22.064Z,32.49
2023-06-11T12:56:52.289Z,32.65
2023-06-11T12:59:24.407Z,33.03
2023-06-11T13:01:53.219Z,33.27
2023-06-11T13:04:21.806Z,33.33
2023-06-11T13:06:50.699Z,34.17
2023-06-11T13:09:19.966Z,34.36
2023-06-11T13:11:48.591Z,34.14
2023-06-11T13:14:19.166Z,33.92
2023-06-11T13:16:48.115Z,32.71
2023-06-11T13:19:18.731Z,33.32
2023-06-11T13:21:48.249Z,32.57
2023-06-11T13:24:17.440Z,32.86
2023-06-11T13:26:47.570Z,32.90
2023-06-11T13:29:16.111Z,33.40
2023-06-11T13:31:46.127Z,33.74
2023-06-11T13:34:14.677Z,33.49
2023-06-11T13:36:44.505Z,33.32
2023-06-11T13:39:13.155Z,34.18
2023-06-11T13:41:42.555Z,34.21
2023-06-11T13:44:11.347Z,33.84
2023-06-11T13:46:40.017Z,33.60
2023-06-11T13:49:10.050Z,33.37
2023-06-11T13:51:41.100Z,32.59
2023-06-11T13:54:09.709Z,33.11
2023-06-11T13:56:38.118Z,33.58
2023-06-11T13:59:06.832Z,33.00
2023-06-11T14:01:35.438Z,33.10
2023-06-11T14:04:05.459Z,33.29
2023-06-11T14:06:36.494Z,33.74
2023-06-11T14:09:05.629Z,33.59
2023-06-11T14:11:34.217Z,33.22
2023-06-11T14:14:02.861Z,34.00
2023-06-11T14:16:34.666Z,33.12
2023-06-11T14:19:03.409Z,34.06
2023-06-11T14:21:31.971Z,33.88
2023-06-11T14:24:05.664Z,34.70
2023-06-11T14:26:34.333Z,33.93
2023-06-11T14:29:06.958Z,34.47
2023-06-11T14:31:37.818Z,33.68
2023-06-11T14:34:09.188Z,34.24
2023-06-11T14:36:37.756Z,34.08
2023-06-11T14:39:09.360Z,34.34
2023-06-11T14:41:38.322Z,33.23
2023-06-11T14:44:07.008Z,33.29
2023-06-11T14:46:37.480Z,33.31
2023-06-11T14:49:11.122Z,33.80
2023-06-11T14:51:40.478Z,34.33
2023-06-11T14:54:10.295Z,33.95
2023-06-11T14:56:41.528Z,34.41
2023-06-11T14:59:15.723Z,33.63
2023-06-11T15:01:44.787Z,33.44
2023-06-11T15:04:15.042Z,33.47
2023-06-11T15:06:43.811Z,32.67
2023-06-11T15:09:13.698Z,32.54
2023-06-11T15:11:42.238Z,33.13
2023-06-11T15:14:12.507Z,33.06
2023-06-11T15:16:41.070Z,33.06
2023-06-11T15:19:09.659Z,33.36
2023-06-11T15:21:38.524Z,33.82
2023-06-11T15:24:09.046Z,33.71
2023-06-11T15:26:39.426Z,33.55
2023-06-11T15:29:07.963Z,33.67
2023-06-11T15:31:36.570Z,33.07
2023-06-11T15:34:05.252Z,33.68
2023-06-11T15:36:34.102Z,33.47
2023-06-11T15:39:03.768Z,33.62
2023-06-11T15:41:32.399Z,34.24
2023-06-11T15:44:02.436Z,34.10
2023-06-11T15:46:31.176Z,34.58
2023-06-11T15:48:59.705Z,34.20
2023-06-11T15:51:32.901Z,33.40
2023-06-11T15:54:04.216Z,33.55
2023-06-11T15:56:32.969Z,33.27
2023-06-11T15:59:02.790Z,33.26
2023-06-11T16:01:31.828Z,33.71
2023-06-11T16:04:00.326Z,33.95
2023-06-11T16:06:29.413Z,34.08
2023-06-11T16:08:58.209Z,34.39
2023-06-11T16:11:27.427Z,34.36
2023-06-11T16:13:56.444Z,34.64
2023-06-11T16:16:26.591Z,34.74
2023-06-11T16:18:55.140Z,34.88
2023-06-11T16:21:24.003Z,34.63
2023-06-11T16:23:52.481Z,34.55
2023-06-11T16:26:21.550Z,34.90
2023-06-11T16:28:50.913Z,35.49
2023-06-11T16:31:19.682Z,35.56
2023-06-11T16:33:58.366Z,35.23
2023-06-11T16:36:30.432Z,34.92
2023-06-11T16:39:17.281Z,34.48
2023-06-11T16:41:48.769Z,34.85
2023-06-11T16:44:17.136Z,34.46
2023-06-11T16:46:45.961Z,34.41
2023-06-11T16:49:16.125Z,34.81
2023-06-11T16:51:44.789Z,35.02
2023-06-11T16:54:15.699Z,35.00
2023-06-11T16:56:46.342Z,35.12
2023-06-11T16:59:16.219Z,34.75
2023-06-11T17:01:44.740Z,35.14
2023-06-11T17:04:13.449Z,34.96
2023-06-11T17:06:46.547Z,35.51
2023-06-11T17:09:15.266Z,35.47
2023-06-11T17:11:43.738Z,35.93
2023-06-11T17:14:14.723Z,35.77
2023-06-11T17:16:43.356Z,36.09
2023-06-11T17:19:11.724Z,36.01
2023-06-11T17:21:40.670Z,35.71
2023-06-11T17:24:13.544Z,35.64
2023-06-11T17:26:42.664Z,35.98
2023-06-11T17:29:11.981Z,35.82
2023-06-11T17:31:43.641Z,35.36
2023-06-11T17:34:12.370Z,35.88
2023-06-11T17:36:42.121Z,35.20
2023-06-11T17:39:12.170Z,35.45
2023-06-11T17:41:41.788Z,34.94
2023-06-11T17:44:10.468Z,34.93
2023-06-11T17:46:38.957Z,34.50
2023-06-11T17:49:07.674Z,34.73
2023-06-11T17:51:37.971Z,34.82
2023-06-11T17:54:06.645Z,35.11
2023-06-11T17:56:36.546Z,34.95
2023-06-11T17:59:05.712Z,35.38
2023-06-11T18:01:34.615Z,35.58
2023-06-11T18:04:07.825Z,35.76
2023-06-11T18:06:39.649Z,35.84
2023-06-11T18:09:08.362Z,35.77
2023-06-11T18:11:41.339Z,35.99
2023-06-11T18:14:10.047Z,36.26
2023-06-11T18:16:43.059Z,36.30
2023-06-11T18:19:14.535Z,36.63
2023-06-11T18:21:43.074Z,36.49
2023-06-11T18:24:11.714Z,36.65
2023-06-11T18:26:43.638Z,37.04
2023-06-11T18:29:12.034Z,37.58
2023-06-11T18:31:40.459Z,37.24
2023-06-11T18:34:09.069Z,37.23
2023-06-11T18:36:37.624Z,37.07
2023-06-11T18:39:09.374Z,37.11
2023-06-11T18:41:37.914Z,37.66
2023-06-11T18:44:07.775Z,37.85
2023-06-11T18:46:45.266Z,38.04
2023-06-11T18:49:17.179Z,38.07
2023-06-11T18:51:46.546Z,38.57
2023-06-11T18:54:14.979Z,38.47
2023-06-11T18:56:43.492Z,38.64
2023-06-11T18:59:13.759Z,38.54
2023-06-11T19:01:42.601Z,39.04
2023-06-11T19:04:12.282Z,39.11
2023-06-11T19:06:40.936Z,39.30
2023-06-11T19:09:11.937Z,38.65
2023-06-11T19:11:40.566Z,39.24
2023-06-11T19:14:09.514Z,39.45
2023-06-11T19:16:39.794Z,39.11
2023-06-11T19:19:08.197Z,38.83
2023-06-11T19:21:37.614Z,39.41
2023-06-11T19:24:06.426Z,39.63
2023-06-11T19:26:35.085Z,39.96
2023-06-11T19:29:03.676Z,39.89
2023-06-11T19:31:32.374Z,39.69
2023-06-11T19:34:02.827Z,39.75
2023-06-11T19:36:31.637Z,40.24
2023-06-11T19:39:00.185Z,40.05
2023-06-11T19:41:32.017Z,39.82
2023-06-11T19:44:00.937Z,40.34
2023-06-11T19:46:35.321Z,40.62
2023-06-11T19:49:05.438Z,40.51
2023-06-11T19:51:34.145Z,40.43
2023-06-11T19:54:02.936Z,40.19
2023-06-11T19:56:32.800Z,40.04
2023-06-11T19:59:02.342Z,40.51
2023-06-11T20:01:30.931Z,40.46
2023-06-11T20:04:02.209Z,40.51
2023-06-11T20:06:32.096Z,40.59
2023-06-11T20:09:04.485Z,40.99
2023-06-11T20:11:34.714Z,40.56
2023-06-11T20:14:05.997Z,41.09
2023-06-11T20:16:34.913Z,41.52
2023-06-11T20:19:03.751Z,41.36
2023-06-11T20:21:34.151Z,41.44
2023-06-11T20:24:02.586Z,41.32
2023-06-11T20:26:31.644Z,41.55
2023-06-11T20:29:00.038Z,41.76
2023-06-11T20:31:30.669Z,41.54
2023-06-11T20:33:59.054Z,42.37
2023-06-11T20:36:27.662Z,41.79
2023-06-11T20:38:57.881Z,41.79
2023-06-11T20:41:27.512Z,42.14
2023-06-11T20:43:55.874Z,42.52
2023-06-11T20:48:55.895Z,42.62
2023-06-11T20:51:24.902Z,42.25
2023-06-11T20:53:53.543Z,42.89
2023-06-11T20:56:25.654Z,42.79
2023-06-11T20:58:54.292Z,43.02
2023-06-11T21:01:23.066Z,43.61
2023-06-11T21:03:52.071Z,43.22
2023-06-11T21:06:20.618Z,43.39
2023-06-11T21:08:49.056Z,43.14
2023-06-11T21:11:17.442Z,43.41
2023-06-11T21:13:56.660Z,43.18
2023-06-11T21:16:32.839Z,43.42
2023-06-11T21:19:01.448Z,43.55
2023-06-11T21:21:30.102Z,43.81
2023-06-11T21:23:58.629Z,44.24
2023-06-11T21:26:27.544Z,43.90
2023-06-11T21:28:57.642Z,44.33
2023-06-11T21:31:26.227Z,44.34
2023-06-11T21:33:54.845Z,43.95
2023-06-11T21:36:24.816Z,44.23
2023-06-11T21:38:54.787Z,44.22
2023-06-11T21:41:23.660Z,44.03
2023-06-11T21:43:52.015Z,44.28
2023-06-11T21:46:22.637Z,44.11
2023-06-11T21:48:51.928Z,44.38
2023-06-11T21:51:21.395Z,44.13
2023-06-11T21:53:51.719Z,43.98
2023-06-11T21:56:20.207Z,44.46
2023-06-11T21:58:48.548Z,44.54
2023-06-11T22:01:17.514Z,44.92
2023-06-11T22:03:47.457Z,44.83
2023-06-11T22:06:16.323Z,45.21
2023-06-11T22:08:45.793Z,44.99
2023-06-11T22:11:14.413Z,45.36
2023-06-11T22:13:42.814Z,45.67
2023-06-11T22:16:11.355Z,45.24
2023-06-11T22:18:45.102Z,46.09
2023-06-11T22:21:15.451Z,45.96
2023-06-11T22:23:50.984Z,46.59
2023-06-11T22:26:23.002Z,46.24
2023-06-11T22:28:52.423Z,45.97
2023-06-11T22:31:20.832Z,46.28
2023-06-11T22:33:52.132Z,45.87
2023-06-11T22:36:22.002Z,45.93
2023-06-11T22:38:50.805Z,45.83
2023-06-11T22:41:20.163Z,46.41
2023-06-11T22:43:48.628Z,45.75
2023-06-11T22:46:17.304Z,46.63
2023-06-11T22:48:46.548Z,46.83
2023-06-11T22:51:15.044Z,46.28
2023-06-11T22:53:45.138Z,46.69
2023-06-11T22:56:14.168Z,46.83
2023-06-11T22:58:42.563Z,46.17
2023-06-11T23:01:11.205Z,47.15
2023-06-11T23:03:39.824Z,47.32
2023-06-11T23:06:10.938Z,47.59
2023-06-11T23:08:41.577Z,47.71
2023-06-11T23:11:11.829Z,48.29
2023-06-11T23:13:40.466Z,47.65
2023-06-11T23:16:10.338Z,48.06
2023-06-11T23:18:39.095Z,47.63
2023-06-11T23:21:07.759Z,48.18
2023-06-11T23:23:38.618Z,48.97
2023-06-11T23:26:10.589Z,47.95
2023-06-11T23:28:41.787Z,47.83
2023-06-11T23:31:10.161Z,48.47
2023-06-11T23:33:38.748Z,48.51
2023-06-11T23:36:09.618Z,49.23
2023-06-11T23:38:40.715Z,48.91
2023-06-11T23:41:09.778Z,49.16
2023-06-11T23:43:38.280Z,49.17
2023-06-11T23:46:12.405Z,48.96
2023-06-11T23:48:41.135Z,48.64
2023-06-11T23:51:10.495Z,48.96
2023-06-11T23:53:39.552Z,49.66
2023-06-11T23:56:07.998Z,49.31
2023-06-11T23:58:36.638Z,49.53
